This is the latest recevied weather packets stored in our database for station/object E24CR-1. If no packets are shown the sender has not sent any weather packets the latest 10 day(s).
| Time | Temp. | Humidity | Pressure | Rain* | Wind** | Luminosity | Snow |
|---|---|---|---|---|---|---|---|
| 1778117578 | 31.11° C | 67% | 952 hPa | - | - | 0 W/m² | - |
| 1778116954 | 30° C | 76% | 952 hPa | - | - | 0 W/m² | - |
| 1778116328 | 28.89° C | 82% | 952 hPa | - | - | 0 W/m² | - |
| 1778115703 | 29.44° C | 74% | 952 hPa | - | - | 0 W/m² | - |
| 1778115078 | 28.89° C | 76% | 952 hPa | - | - | 0 W/m² | - |
| 1778114449 | 28.89° C | 74% | 952 hPa | - | - | 0 W/m² | - |
| 1778113824 | 27.78° C | 80% | 952 hPa | - | - | 0 W/m² | - |
| 1778113200 | 27.22° C | 87% | 952 hPa | - | - | 0 W/m² | - |
| 1778112575 | 27.22° C | 78% | 952 hPa | - | - | 0 W/m² | - |
| 1778111949 | 26.67° C | 79% | 952 hPa | - | - | 0 W/m² | - |
| 1778111325 | 26.11° C | 80% | 952 hPa | - | - | 0 W/m² | - |
| 1778110700 | 26.11° C | 81% | 952 hPa | - | - | 0 W/m² | - |
| 1778110074 | 26.11° C | 82% | 951 hPa | - | - | 0 W/m² | - |
| 1778109450 | 26.11° C | 81% | 951 hPa | - | - | 0 W/m² | - |
| 1778108817 | 26.67° C | 77% | 951 hPa | - | - | 0 W/m² | - |
| 1778108190 | 27.22° C | 73% | 951 hPa | - | - | 0 W/m² | - |
| 1778107565 | 27.78° C | 74% | 951 hPa | - | - | 0 W/m² | - |
| 1778106940 | 27.78° C | 74% | 951 hPa | - | - | 0 W/m² | - |
| 1778106315 | 27.78° C | 73% | 951 hPa | - | - | 0 W/m² | - |
| 1778105691 | 27.78° C | 73% | 951 hPa | - | - | 0 W/m² | - |
| 1778105066 | 27.22° C | 76% | 951 hPa | - | - | 0 W/m² | - |
| 1778104441 | 26.11° C | 84% | 951 hPa | - | - | 0 W/m² | - |
| 1778103816 | 26.67° C | 78% | 951 hPa | - | - | 0 W/m² | - |
| 1778103191 | 27.22° C | 78% | 951 hPa | - | - | 0 W/m² | - |
| 1778102563 | 27.78° C | 76% | 951 hPa | - | - | 0 W/m² | - |
* Rain since midnight (hover to see other rain measurements)
** Current wind speed in m/s (hover to see current wind gust speed)